Huvudsida
METAR-TAF:

METAR-TAF

Flygplatser :

Uppsala, Sverige

Uppsala-Ärna flygplats

latitud: 59-53N, longitud: 017-36E, höjd: 21 m

METAR: saknas

Tid: 11:56 (10:56 UTC)

Väderprognos

Denna rapport gjordes för 2 timmar och 16 minuter sedan, klockan 08:40 UTC
Prognos gäller från 17 kl. 09 UTC till 17 kl. 15 UTC
Vind 11 kt från ost/sydost
Sikt: 2000 m
på en höjd av 2000 ft
snö
Temporärt
från 17 kl. 09 UTC till 17 kl. 15 UTC
Sikt: 8000 m
Brutna moln på en höjd av 600 ft
lätt snö

TAF: ESCM 170840Z 1709/1715 11011KT 2000 SN VV020 TEMPO 1709/1715 8000 -SN BKN006

Aktuella väderrapporter och prognoser från 4000 flygplatser (METAR- och TAF-rapporter).

De tillgängliga stationerna syns som gula och röda prickar på kartan.

För musen över prickarna för att se namnen på stationerna.

Klicka sedan för att få väderrapporter och prognoser.

För att ändra kartan: Klicka på de gröna knapparna med ett svart kors på för att zooma in; den gröna knappen med ett streck på för att zooma ut; eller på de gröna pilarna för angränsande kartor.


METAR-TAF: